KILM/ILM METAR and TAF weather

Enter ICAO airport designator
Station Type Date Time Source
KILM METAR 2024/02/26 17:53 UTC NOAA

KILM 261753Z 21013G19KT 10SM CLR 19/04 A3017 RMK AO2 SLP216 60000 T01940044 10194 20067 58012


Station Type Date Time Source
KILM Decoded METAR 2024/02/26 17:53 UTC NOAA

WILMINGTON INT'L AIRPORT, NC, United States (KILM) 34-16N 077-54W 9M
Feb 26, 2024 - 12:53 PM EST / 2024.02.26 1753 UTC
Wind: from the SSW (210 degrees) at 15 MPH (13 KT) gusting to 22 MPH (19 KT):0
Visibility: 10 mile(s):0
Sky conditions: clear
Temperature: 66.9 F (19.4 C)
Dew Point: 39.9 F (4.4 C)
Relative Humidity: 37%
Pressure (altimeter): 30.17 in. Hg (1021 hPa)
Pressure tendency: 0.04 inches (1.2 hPa) lower than three hours ago
ob: KILM 261753Z 21013G19KT 10SM CLR 19/04 A3017 RMK AO2 SLP216 60000 T01940044 10194 20067 58012
cycle: 18

Station Type Date Time Source
KILM TAF 2024/02/26 18:22 UTC NOAA